Time;durP1;ratioP1;P1;durP2;ratioP2;P2;SDS_P1;SDS_P2;PMS_P1;PMS_P2;Temp;Humidity;BMP_temperature;BMP_pressure;BME280_temperature;BME280_humidity;BME280_pressure;Samples;Min_cycle;Max_cycle;Signal;HPM_P1;HPM_P2
2024/02/23 00:01:40;;;;;;;27.20;15.40;;;;;;;1.41;100.00;101447.30;105473;1270;73006;-74
2024/02/23 00:04:08;;;;;;;27.80;17.50;;;;;;;1.37;100.00;101451.81;106611;1271;63855;-73
2024/02/23 00:06:35;;;;;;;27.10;15.60;;;;;;;1.33;100.00;101454.95;107972;1270;71439;-74
2024/02/23 00:09:02;;;;;;;29.80;16.00;;;;;;;1.32;100.00;101453.58;107591;1273;60822;-74
2024/02/23 00:11:32;;;;;;;20.40;14.00;;;;;;;1.35;100.00;101450.80;106937;1269;59288;-76
2024/02/23 00:13:59;;;;;;;25.00;15.00;;;;;;;1.37;100.00;101445.61;108279;1270;73830;-76
2024/02/23 00:16:26;;;;;;;27.30;16.90;;;;;;;1.40;100.00;101441.61;108559;1271;62508;-75
2024/02/23 00:18:53;;;;;;;26.90;16.20;;;;;;;1.45;100.00;101442.44;108552;1269;70471;-77
2024/02/23 00:21:20;;;;;;;26.00;16.20;;;;;;;1.48;100.00;101438.96;106346;1269;60488;-76
2024/02/23 00:23:47;;;;;;;25.70;15.60;;;;;;;1.46;100.00;101442.61;105224;1270;60529;-76
2024/02/23 00:26:14;;;;;;;22.80;15.40;;;;;;;1.46;100.00;101441.57;104669;1270;72447;-76
2024/02/23 00:28:41;;;;;;;24.10;15.70;;;;;;;1.43;100.00;101439.01;104682;1273;63897;-76
2024/02/23 00:31:07;;;;;;;25.10;15.80;;;;;;;1.39;100.00;101443.19;104644;1273;72486;-77
2024/02/23 00:33:36;;;;;;;22.20;14.90;;;;;;;1.39;100.00;101449.55;104626;1271;60504;-76
2024/02/23 00:36:04;;;;;;;26.80;15.40;;;;;;;1.41;100.00;101447.47;104622;1273;60510;-75
2024/02/23 00:38:31;;;;;;;30.40;17.20;;;;;;;1.44;100.00;101447.79;104592;1271;73953;-77
2024/02/23 00:40:58;;;;;;;25.00;14.30;;;;;;;1.49;100.00;101450.33;104594;1270;62643;-77
2024/02/23 00:43:24;;;;;;;26.60;15.00;;;;;;;1.50;100.00;101444.46;104868;1269;72513;-76
2024/02/23 00:45:51;;;;;;;27.30;15.50;;;;;;;1.49;100.00;101442.06;104612;1273;61456;-74
2024/02/23 00:48:18;;;;;;;29.50;16.30;;;;;;;1.47;100.00;101439.15;104565;1271;60488;-74
2024/02/23 00:50:47;;;;;;;28.00;16.40;;;;;;;1.44;100.00;101437.10;104490;1273;72773;-74
2024/02/23 00:53:14;;;;;;;25.80;16.00;;;;;;;1.44;100.00;101437.45;104696;1273;63885;-75
2024/02/23 00:55:41;;;;;;;29.30;16.00;;;;;;;1.42;100.00;101435.23;104618;1271;72784;-73
2024/02/23 00:58:09;;;;;;;31.60;15.90;;;;;;;1.42;100.00;101435.05;104619;1271;60468;-75
2024/02/23 01:00:36;;;;;;;36.20;17.20;;;;;;;1.41;100.00;101431.11;104642;1271;60556;-75
2024/02/23 01:03:03;;;;;;;27.00;17.10;;;;;;;1.41;100.00;101426.62;104576;1271;73790;-75
2024/02/23 01:05:30;;;;;;;31.00;18.00;;;;;;;1.42;100.00;101423.86;104545;1273;63890;-75
2024/02/23 01:07:58;;;;;;;24.50;14.90;;;;;;;1.43;100.00;101422.82;104560;1271;72773;-76
2024/02/23 01:10:25;;;;;;;31.00;15.30;;;;;;;1.42;100.00;101423.00;104734;1273;61323;-75
2024/02/23 01:12:53;;;;;;;24.80;14.10;;;;;;;1.40;100.00;101436.11;104656;1271;60616;-75
2024/02/23 01:15:20;;;;;;;24.70;14.30;;;;;;;1.36;100.00;101437.17;104655;1271;74019;-74
2024/02/23 01:17:47;;;;;;;22.70;13.70;;;;;;;1.36;100.00;101437.19;104528;1274;63636;-74
2024/02/23 01:20:14;;;;;;;22.90;13.50;;;;;;;1.37;100.00;101437.86;104570;1271;72762;-73
2024/02/23 01:22:42;;;;;;;21.30;12.40;;;;;;;1.39;100.00;101440.94;104620;1270;61071;-74
2024/02/23 01:25:09;;;;;;;24.60;13.50;;;;;;;1.40;100.00;101445.75;104658;1273;60852;-75
2024/02/23 01:27:37;;;;;;;24.20;13.60;;;;;;;1.40;100.00;101448.86;104661;1271;72824;-73
2024/02/23 01:30:06;;;;;;;21.30;13.50;;;;;;;1.41;100.00;101447.65;104590;1269;63132;-74
2024/02/23 01:32:33;;;;;;;21.90;14.20;;;;;;;1.42;100.00;101447.63;104633;1271;71546;-75
2024/02/23 01:34:59;;;;;;;24.50;15.10;;;;;;;1.43;100.00;101450.72;104520;1271;60593;-75
2024/02/23 01:39:29;;;;;;;24.50;13.70;;;;;;;1.44;100.00;101453.99;102844;1293;600852;-72
2024/02/23 01:41:56;;;;;;;22.70;14.30;;;;;;;1.40;100.00;101457.46;104897;1272;59264;-74
2024/02/23 01:44:26;;;;;;;21.80;14.80;;;;;;;1.39;100.00;101462.98;104951;1265;59753;-74
2024/02/23 01:46:53;;;;;;;21.30;13.50;;;;;;;1.39;100.00;101467.13;105003;1272;71054;-73
2024/02/23 01:49:21;;;;;;;26.40;14.90;;;;;;;1.35;100.00;101471.98;105187;1267;63759;-73
2024/02/23 01:51:49;;;;;;;22.50;13.70;;;;;;;1.32;100.00;101475.45;105538;1267;72702;-74
2024/02/23 01:54:16;;;;;;;22.40;14.00;;;;;;;1.29;100.00;101478.59;106270;1269;225605;-72
2024/02/23 01:56:44;;;;;;;24.20;13.10;;;;;;;1.29;100.00;101478.40;106865;1268;59334;-73
2024/02/23 01:59:13;;;;;;;24.30;14.90;;;;;;;1.29;100.00;101472.90;106485;1269;71032;-72
2024/02/23 02:01:44;;;;;;;21.50;13.60;;;;;;;1.30;100.00;101474.10;107104;1262;63058;-73
2024/02/23 02:04:11;;;;;;;22.70;14.20;;;;;;;1.31;100.00;101472.54;108702;1263;71569;-74
2024/02/23 02:06:39;;;;;;;16.60;11.40;;;;;;;1.34;100.00;101458.89;108765;1263;59617;-74
2024/02/23 02:09:07;;;;;;;20.30;13.00;;;;;;;1.38;100.00;101449.23;108077;1264;59589;-73
2024/02/23 02:11:34;;;;;;;21.80;13.40;;;;;;;1.41;100.00;101437.48;105895;1269;72373;-74
2024/02/23 02:14:02;;;;;;;21.20;13.50;;;;;;;1.44;100.00;101431.75;105093;1269;62565;-74
2024/02/23 02:16:30;;;;;;;21.30;13.20;;;;;;;1.45;100.00;101432.10;105033;1268;72983;-74
2024/02/23 02:18:57;;;;;;;23.00;17.10;;;;;;;1.45;100.00;101437.63;104957;1267;60013;-75
2024/02/23 02:21:25;;;;;;;21.70;13.50;;;;;;;1.42;100.00;101445.57;104967;1269;59641;-74
2024/02/23 02:23:52;;;;;;;25.20;15.00;;;;;;;1.39;100.00;101452.31;104946;1269;72574;-75
2024/02/23 02:26:20;;;;;;;21.30;12.70;;;;;;;1.35;100.00;101452.86;105080;1264;62945;-73
2024/02/23 02:28:48;;;;;;;26.00;15.10;;;;;;;1.35;100.00;101455.45;105127;1270;71843;-75
2024/02/23 02:31:16;;;;;;;21.30;12.20;;;;;;;1.34;100.00;101450.98;104981;1269;59728;-75
2024/02/23 02:33:43;;;;;;;21.80;13.70;;;;;;;1.34;100.00;101448.74;104983;1268;59592;-75
2024/02/23 02:36:11;;;;;;;18.20;11.20;;;;;;;1.32;100.00;101448.92;105158;1265;71622;-76
2024/02/23 02:38:39;;;;;;;21.10;12.30;;;;;;;1.30;100.00;101445.33;105024;1264;62392;-75
2024/02/23 02:41:08;;;;;;;22.40;14.00;;;;;;;1.27;100.00;101458.45;104975;1266;71198;-75
2024/02/23 02:43:36;;;;;;;21.30;13.10;;;;;;;1.24;100.00;101466.73;104969;1267;60008;-77
2024/02/23 02:46:04;;;;;;;20.20;12.40;;;;;;;1.24;100.00;101467.24;104990;1269;59635;-74
2024/02/23 02:48:32;;;;;;;18.40;12.80;;;;;;;1.21;100.00;101467.62;105730;1260;71215;-74
2024/02/23 02:51:00;;;;;;;20.50;12.20;;;;;;;1.18;100.00;101465.05;105735;1260;63950;-74
2024/02/23 02:53:28;;;;;;;18.90;12.10;;;;;;;1.17;100.00;101462.66;105898;1252;71418;-77
2024/02/23 02:55:55;;;;;;;21.70;12.70;;;;;;;1.17;100.00;101461.97;105716;1251;60135;-73
2024/02/23 02:58:22;;;;;;;20.40;12.70;;;;;;;1.17;100.00;101466.45;105654;1252;59967;-75
2024/02/23 03:00:51;;;;;;;23.30;11.60;;;;;;;1.16;100.00;101467.49;105660;1255;72953;-75
2024/02/23 03:03:18;;;;;;;19.70;11.60;;;;;;;1.16;100.00;101474.90;105850;1259;63659;-75
2024/02/23 03:05:46;;;;;;;23.60;12.50;;;;;;;1.16;100.00;101477.48;105716;1267;72379;-75
2024/02/23 03:08:13;;;;;;;20.10;12.20;;;;;;;1.13;100.00;101479.05;105789;1255;59701;-75
2024/02/23 03:10:41;;;;;;;20.40;11.80;;;;;;;1.10;100.00;101480.63;105746;1258;59693;-77
2024/02/23 03:13:08;;;;;;;18.60;12.10;;;;;;;1.08;100.00;101482.01;105770;1257;73138;-76
2024/02/23 03:15:36;;;;;;;23.90;13.70;;;;;;;1.07;100.00;101481.67;105628;1257;63693;-75
2024/02/23 03:18:03;;;;;;;19.00;11.10;;;;;;;1.05;100.00;101484.27;105736;1257;71415;-74
2024/02/23 03:20:31;;;;;;;22.90;13.30;;;;;;;1.04;100.00;101479.45;105674;1257;59720;-73
2024/02/23 03:22:59;;;;;;;22.00;12.70;;;;;;;1.03;100.00;101475.33;105665;1260;59586;-75
2024/02/23 03:25:26;;;;;;;24.50;14.40;;;;;;;1.03;100.00;101472.40;106360;1255;74195;-74
2024/02/23 03:27:55;;;;;;;20.70;12.60;;;;;;;1.02;100.00;101471.02;105793;1257;63015;-75
2024/02/23 03:30:22;;;;;;;19.70;13.40;;;;;;;1.03;100.00;101471.02;105747;1258;72112;-77
2024/02/23 03:32:50;;;;;;;25.20;14.50;;;;;;;1.04;100.00;101468.95;105769;1254;59705;-76
2024/02/23 03:35:18;;;;;;;20.10;12.10;;;;;;;1.05;100.00;101462.74;105715;1255;61559;-76
2024/02/23 03:37:46;;;;;;;21.50;13.10;;;;;;;1.05;100.00;101459.82;105894;1257;71626;-74
2024/02/23 03:40:14;;;;;;;22.40;13.60;;;;;;;1.04;100.00;101456.88;105764;1255;62479;-75
2024/02/23 03:42:41;;;;;;;20.40;12.90;;;;;;;1.06;100.00;101452.76;105690;1260;72455;-75
2024/02/23 03:45:09;;;;;;;23.30;12.30;;;;;;;1.08;100.00;101451.19;105640;1258;59794;-74
2024/02/23 03:47:37;;;;;;;23.00;13.60;;;;;;;1.09;100.00;101448.08;105640;1260;59632;-76
2024/02/23 03:50:07;;;;;;;21.60;12.80;;;;;;;1.10;100.00;101453.24;105707;1257;71771;-74
2024/02/23 03:52:34;;;;;;;16.50;11.40;;;;;;;1.08;100.00;101458.24;105817;1260;62301;-75
2024/02/23 03:55:04;;;;;;;22.40;12.50;;;;;;;1.07;100.00;101456.69;105721;1260;71481;-76
2024/02/23 03:57:31;;;;;;;22.90;13.10;;;;;;;1.06;100.00;101457.39;105736;1251;59749;-76
2024/02/23 03:59:58;;;;;;;24.00;14.70;;;;;;;1.07;100.00;101458.94;105821;1255;59721;-74
2024/02/23 04:02:26;;;;;;;23.40;13.90;;;;;;;1.07;100.00;101460.66;105675;1260;71470;-73
2024/02/23 04:04:54;;;;;;;20.50;12.80;;;;;;;1.06;100.00;101467.73;105786;1258;62409;-74
2024/02/23 04:07:22;;;;;;;18.80;11.20;;;;;;;1.03;100.00;101466.89;106292;1257;70961;-72
2024/02/23 04:09:55;;;;;;;19.40;12.50;;;;;;;1.04;100.00;101472.21;107393;1257;60886;-73
2024/02/23 04:12:23;;;;;;;18.00;11.40;;;;;;;1.04;100.00;101472.05;106893;1257;59666;-76
2024/02/23 04:14:50;;;;;;;21.60;13.00;;;;;;;1.06;100.00;101468.92;105755;1260;72311;-76
2024/02/23 04:17:18;;;;;;;25.60;14.70;;;;;;;1.09;100.00;101468.39;105950;1257;63596;-75
2024/02/23 04:19:46;;;;;;;25.70;14.50;;;;;;;1.10;100.00;101473.71;105982;1253;71593;-76
2024/02/23 04:22:14;;;;;;;24.30;12.50;;;;;;;1.11;100.00;101474.07;105861;1258;59758;-75
2024/02/23 04:24:41;;;;;;;25.10;14.40;;;;;;;1.12;100.00;101478.71;105811;1257;59723;-74
2024/02/23 04:27:09;;;;;;;19.10;12.50;;;;;;;1.12;100.00;101474.75;105724;1262;72784;-74
2024/02/23 04:29:38;;;;;;;25.60;13.60;;;;;;;1.12;100.00;101479.23;105910;1257;64485;-72
2024/02/23 04:32:06;;;;;;;23.50;13.00;;;;;;;1.11;100.00;101473.72;106027;1257;72186;-77
2024/02/23 04:34:34;;;;;;;25.40;12.20;;;;;;;1.13;100.00;101479.22;106057;1254;59770;-75
2024/02/23 04:37:02;;;;;;;26.00;13.50;;;;;;;1.14;100.00;101478.69;105906;1256;60162;-74
2024/02/23 04:39:30;;;;;;;22.20;13.20;;;;;;;1.13;100.00;101477.66;105933;1258;72094;-74
2024/02/23 04:41:58;;;;;;;21.90;13.80;;;;;;;1.14;100.00;101481.27;105944;1251;62939;-74
2024/02/23 04:44:25;;;;;;;24.30;13.30;;;;;;;1.19;100.00;101483.64;105758;1251;70523;-74
2024/02/23 04:46:53;;;;;;;20.70;13.90;;;;;;;1.19;100.00;101484.50;105828;1254;59708;-75
2024/02/23 04:49:21;;;;;;;24.60;13.80;;;;;;;1.18;100.00;101487.79;105786;1257;59668;-74
2024/02/23 04:51:49;;;;;;;20.40;12.60;;;;;;;1.20;100.00;101481.58;105745;1257;71881;-73
2024/02/23 04:54:17;;;;;;;22.80;14.00;;;;;;;1.21;100.00;101485.35;105837;1257;63726;-73
2024/02/23 04:56:44;;;;;;;22.20;13.90;;;;;;;1.20;100.00;101486.41;105871;1251;73197;-74
2024/02/23 04:59:12;;;;;;;22.00;14.10;;;;;;;1.20;100.00;101485.37;105810;1251;61006;-73
2024/02/23 05:01:40;;;;;;;22.80;14.20;;;;;;;1.21;100.00;101484.84;105769;1257;59557;-74
2024/02/23 05:04:08;;;;;;;26.10;15.00;;;;;;;1.23;100.00;101486.55;105862;1257;73813;-75
2024/02/23 05:06:37;;;;;;;22.40;13.60;;;;;;;1.26;100.00;101483.09;105915;1257;66021;-77
2024/02/23 05:09:09;;;;;;;23.80;15.40;;;;;;;1.31;100.00;101489.08;105465;1255;71262;-75
2024/02/23 05:11:37;;;;;;;23.20;13.70;;;;;;;1.33;100.00;101490.95;105775;1254;59739;-75
2024/02/23 05:14:05;;;;;;;20.20;12.30;;;;;;;1.34;100.00;101492.14;105963;1251;59666;-76
2024/02/23 05:16:33;;;;;;;18.80;11.80;;;;;;;1.33;100.00;101496.81;106058;1257;71970;-75
2024/02/23 05:19:00;;;;;;;21.80;12.30;;;;;;;1.32;100.00;101505.43;105882;1257;62718;-74
2024/02/23 05:21:29;;;;;;;22.50;13.10;;;;;;;1.28;100.00;101511.84;105817;1258;70747;-76
2024/02/23 05:23:57;;;;;;;22.70;15.20;;;;;;;1.29;100.00;101515.79;105836;1257;61603;-74
2024/02/23 05:26:24;;;;;;;21.80;14.30;;;;;;;1.30;100.00;101522.33;105859;1251;59880;-78
2024/02/23 05:28:52;;;;;;;21.70;13.90;;;;;;;1.30;100.00;101523.87;105870;1257;73045;-78
2024/02/23 05:31:20;;;;;;;23.10;14.50;;;;;;;1.35;100.00;101529.35;105790;1257;63624;-75
2024/02/23 05:33:48;;;;;;;22.60;13.90;;;;;;;1.40;100.00;101531.56;105819;1257;72899;-76
2024/02/23 05:36:16;;;;;;;25.00;14.60;;;;;;;1.42;100.00;101536.70;105894;1251;59783;-76
2024/02/23 05:38:45;;;;;;;29.70;15.60;;;;;;;1.44;100.00;101541.15;105957;1251;60022;-76
2024/02/23 05:41:13;;;;;;;25.70;14.30;;;;;;;1.45;100.00;101545.83;106005;1251;72165;-77
2024/02/23 05:43:41;;;;;;;21.00;12.80;;;;;;;1.49;100.00;101552.34;105864;1254;63599;-73
2024/02/23 05:46:09;;;;;;;22.20;12.20;;;;;;;1.54;100.00;101556.62;105884;1257;71446;-76
2024/02/23 05:48:36;;;;;;;21.90;13.50;;;;;;;1.60;100.00;101556.91;105878;1254;60895;-76
2024/02/23 05:51:04;;;;;;;19.80;12.50;;;;;;;1.69;100.00;101562.00;105784;1256;60396;-76
2024/02/23 05:53:32;;;;;;;24.60;14.40;;;;;;;1.82;100.00;101563.80;105920;1256;72801;-75
2024/02/23 05:56:00;;;;;;;25.40;14.70;;;;;;;1.96;100.00;101569.02;105833;1252;62441;-77
2024/02/23 05:58:28;;;;;;;28.20;14.60;;;;;;;2.09;100.00;101568.88;105921;1257;71869;-75
2024/02/23 06:00:56;;;;;;;21.90;13.30;;;;;;;2.18;100.00;101576.75;109668;1251;58230;-75
2024/02/23 06:03:24;;;;;;;26.10;13.90;;;;;;;2.28;100.00;101579.92;109760;1251;60006;-75
2024/02/23 06:05:54;;;;;;;22.90;14.20;;;;;;;2.36;100.00;101584.86;109806;1250;72433;-76
2024/02/23 06:08:21;;;;;;;24.20;16.00;;;;;;;2.51;100.00;101586.23;109740;1251;62714;-75
2024/02/23 06:10:49;;;;;;;25.30;14.50;;;;;;;2.68;100.00;101591.39;109580;1251;72664;-76
2024/02/23 06:13:16;;;;;;;23.70;15.20;;;;;;;2.80;100.00;101592.81;109619;1251;59718;-75
2024/02/23 06:15:44;;;;;;;23.70;15.50;;;;;;;2.84;100.00;101591.72;109691;1252;59968;-75
2024/02/23 06:18:11;;;;;;;25.90;14.70;;;;;;;2.85;100.00;101596.19;109630;1251;72629;-74
2024/02/23 06:20:39;;;;;;;24.60;14.10;;;;;;;2.86;100.00;101591.88;109664;1250;62507;-74
2024/02/23 06:23:06;;;;;;;24.10;14.40;;;;;;;2.87;100.00;101592.55;109631;1251;70789;-75
2024/02/23 06:25:34;;;;;;;28.90;17.10;;;;;;;2.88;100.00;101593.06;109649;1251;60866;-75
2024/02/23 06:28:02;;;;;;;29.60;17.10;;;;;;;2.91;100.00;101589.73;109680;1251;58821;-74
2024/02/23 06:30:29;;;;;;;29.00;14.90;;;;;;;3.00;100.00;101591.88;109604;1251;73885;-75
2024/02/23 06:32:57;;;;;;;23.90;14.70;;;;;;;3.09;100.00;101587.44;109640;1251;63660;-76
2024/02/23 06:35:26;;;;;;;23.30;14.80;;;;;;;3.17;100.00;101584.39;109639;1251;72427;-75
2024/02/23 06:37:53;;;;;;;26.40;15.30;;;;;;;3.28;100.00;101578.36;109623;1253;63260;-75
2024/02/23 06:40:21;;;;;;;26.40;14.20;;;;;;;3.41;100.00;101576.27;109683;1251;58835;-76
2024/02/23 06:42:50;;;;;;;22.10;14.70;;;;;;;3.55;100.00;101575.89;109619;1251;73221;-74
2024/02/23 06:45:19;;;;;;;27.60;14.20;;;;;;;3.65;100.00;101575.91;109679;1251;64376;-76
2024/02/23 06:47:47;;;;;;;27.50;15.40;;;;;;;3.64;100.00;101579.38;109630;1251;75151;-75
2024/02/23 06:50:14;;;;;;;21.20;14.70;;;;;;;3.58;100.00;101579.30;109631;1251;60943;-76
2024/02/23 06:52:42;;;;;;;27.40;15.40;;;;;;;3.55;100.00;101579.86;109671;1251;60054;-75
2024/02/23 06:55:10;;;;;;;28.40;15.10;;;;;;;3.52;100.00;101575.59;109594;1251;73780;-76
2024/02/23 06:57:38;;;;;;;24.60;15.00;;;;;;;3.54;100.00;101576.41;109633;1250;62465;-76
2024/02/23 07:00:07;;;;;;;29.20;16.30;;;;;;;3.58;100.00;101575.84;109624;1251;74824;-76
2024/02/23 07:02:37;;;;;;;24.30;14.50;;;;;;;3.63;100.00;101577.48;109638;1251;59724;-77
2024/02/23 07:05:05;;;;;;;28.40;15.50;;;;;;;3.71;100.00;101580.46;109664;1251;59071;-76
2024/02/23 07:07:33;;;;;;;28.10;16.70;;;;;;;3.80;100.00;101579.30;109670;1251;76149;-76
2024/02/23 07:10:01;;;;;;;23.50;14.50;;;;;;;3.85;100.00;101577.98;109663;1251;63437;-75
2024/02/23 07:12:28;;;;;;;26.60;15.80;;;;;;;3.95;100.00;101580.77;109644;1251;71225;-75
2024/02/23 07:14:56;;;;;;;25.20;14.00;;;;;;;4.05;100.00;101577.65;109668;1251;61506;-75
2024/02/23 07:17:24;;;;;;;21.60;13.90;;;;;;;4.17;100.00;101577.27;109646;1251;59948;-77
2024/02/23 07:19:52;;;;;;;25.10;15.70;;;;;;;4.28;100.00;101580.00;109649;1251;75118;-76
2024/02/23 07:22:20;;;;;;;25.40;15.80;;;;;;;4.29;100.00;101577.23;109642;1250;63509;-76
2024/02/23 07:24:49;;;;;;;30.90;17.10;;;;;;;4.28;100.00;101570.66;109626;1251;72547;-75
2024/02/23 07:27:16;;;;;;;28.20;16.70;;;;;;;4.33;100.00;101575.08;109634;1252;63114;-75
2024/02/23 07:29:44;;;;;;;31.60;15.70;;;;;;;4.41;100.00;101580.99;109614;1251;58904;-76
2024/02/23 07:32:11;;;;;;;27.10;16.00;;;;;;;4.48;100.00;101585.00;109650;1251;75046;-77
2024/02/23 07:34:40;;;;;;;30.10;16.70;;;;;;;4.52;100.00;101578.70;109674;1251;63877;-77
2024/02/23 07:37:08;;;;;;;27.40;17.00;;;;;;;4.57;100.00;101580.67;109642;1253;72487;-75
2024/02/23 07:39:35;;;;;;;28.20;15.90;;;;;;;4.65;100.00;101584.17;109488;1253;58906;-76
2024/02/23 07:42:05;;;;;;;26.30;16.90;;;;;;;4.72;100.00;101583.34;109487;1252;61431;-76
2024/02/23 07:44:33;;;;;;;25.90;16.90;;;;;;;4.84;100.00;101587.59;109483;1252;75770;-76
2024/02/23 07:47:01;;;;;;;26.20;15.70;;;;;;;4.92;100.00;101591.05;109506;1253;64664;-76
2024/02/23 07:49:28;;;;;;;28.00;15.80;;;;;;;4.96;100.00;101588.73;109511;1253;72817;-73
2024/02/23 07:51:56;;;;;;;24.70;16.20;;;;;;;5.04;100.00;101591.00;109563;1253;60861;-77
2024/02/23 07:54:24;;;;;;;24.20;15.30;;;;;;;5.07;100.00;101589.87;109525;1252;59720;-75
2024/02/23 07:56:52;;;;;;;25.90;16.20;;;;;;;5.08;100.00;101582.05;109404;1253;73053;-76
2024/02/23 07:59:19;;;;;;;27.70;16.10;;;;;;;5.15;100.00;101584.35;109523;1253;63941;-76
2024/02/23 08:01:47;;;;;;;22.10;14.30;;;;;;;5.26;100.00;101579.23;109602;1252;72023;-77
2024/02/23 08:04:16;;;;;;;24.90;14.00;;;;;;;5.43;100.00;101580.76;109577;1252;59526;-77
2024/02/23 08:06:43;;;;;;;27.70;15.50;;;;;;;5.58;100.00;101579.19;109549;1252;60258;-77
2024/02/23 08:09:10;;;;;;;26.10;16.90;;;;;;;5.70;100.00;101577.00;109490;1253;74700;-77
2024/02/23 08:11:38;;;;;;;25.30;15.60;;;;;;;5.88;100.00;101572.21;109488;1253;64697;-77
2024/02/23 08:14:06;;;;;;;29.10;17.10;;;;;;;6.18;100.00;101579.63;109495;1253;71551;-75
2024/02/23 08:16:34;;;;;;;24.50;15.50;;;;;;;6.55;100.00;101581.41;109478;1252;58456;-74
2024/02/23 08:19:01;;;;;;;25.80;15.80;;;;;;;6.90;100.00;101577.80;109655;1252;59148;-76
2024/02/23 08:21:32;;;;;;;24.10;15.10;;;;;;;7.43;100.00;101578.48;109645;1252;72556;-77
2024/02/23 08:23:59;;;;;;;21.80;15.10;;;;;;;8.13;100.00;101582.61;109572;1252;63377;-76
2024/02/23 08:26:26;;;;;;;20.20;14.60;;;;;;;8.82;99.87;101588.38;109490;1253;70908;-75
2024/02/23 08:28:54;;;;;;;21.80;14.50;;;;;;;9.37;88.94;101581.58;109493;1253;62197;-76
2024/02/23 08:31:21;;;;;;;20.60;14.80;;;;;;;9.67;81.03;101582.30;109501;1252;58671;-77
2024/02/23 08:33:49;;;;;;;23.10;15.40;;;;;;;9.79;79.23;101575.70;109466;1254;73704;-76
2024/02/23 08:36:16;;;;;;;28.40;19.00;;;;;;;9.98;79.46;101569.33;109520;1253;63385;-77
2024/02/23 08:38:44;;;;;;;24.70;16.20;;;;;;;10.39;77.67;101570.40;109557;1252;71238;-78
2024/02/23 08:41:11;;;;;;;20.90;15.20;;;;;;;10.79;69.71;101570.70;109573;1252;61323;-74
2024/02/23 08:43:39;;;;;;;20.70;14.60;;;;;;;11.10;66.10;101566.98;109635;1252;58788;-77
2024/02/23 08:46:07;;;;;;;23.70;15.40;;;;;;;11.33;63.48;101564.67;109654;1252;74811;-76
2024/02/23 08:48:36;;;;;;;25.80;16.30;;;;;;;11.51;62.75;101564.85;109638;1252;62397;-78
2024/02/23 08:51:04;;;;;;;21.20;14.70;;;;;;;11.75;61.35;101564.90;109631;1253;71988;-76
2024/02/23 08:53:32;;;;;;;18.60;14.20;;;;;;;12.03;59.46;101565.65;109577;1253;58609;-76
2024/02/23 08:56:00;;;;;;;18.10;14.40;;;;;;;12.26;59.90;101569.54;109636;1252;58460;-74
2024/02/23 08:58:29;;;;;;;21.50;14.80;;;;;;;12.56;57.77;101563.93;109600;1252;75020;-74
2024/02/23 09:00:56;;;;;;;22.70;15.80;;;;;;;12.74;57.16;101566.30;109660;1252;62239;-78
2024/02/23 09:03:24;;;;;;;20.20;14.70;;;;;;;12.91;55.03;101574.88;109626;1253;71443;-75
2024/02/23 09:05:52;;;;;;;19.50;14.20;;;;;;;13.03;54.88;101567.73;109622;1252;59459;-77
2024/02/23 09:08:19;;;;;;;17.50;13.60;;;;;;;13.19;53.89;101565.80;109664;1253;58626;-76
2024/02/23 09:10:47;;;;;;;22.00;13.70;;;;;;;13.28;53.74;101563.54;109625;1252;73782;-76
2024/02/23 09:13:15;;;;;;;20.40;14.60;;;;;;;13.38;53.81;101558.04;109655;1252;63086;-76
2024/02/23 09:15:43;;;;;;;17.50;13.90;;;;;;;13.48;52.82;101556.46;109583;1252;72138;-75
2024/02/23 09:18:11;;;;;;;25.70;14.20;;;;;;;13.41;52.69;101558.96;109576;1253;59882;-77
2024/02/23 09:20:39;;;;;;;18.30;14.10;;;;;;;13.29;53.36;101567.34;109513;1253;61102;-75
2024/02/23 09:23:06;;;;;;;20.90;13.80;;;;;;;13.10;53.57;101564.54;109604;1251;73100;-76
2024/02/23 09:25:34;;;;;;;21.80;15.20;;;;;;;12.79;54.52;101563.98;109664;1253;63694;-77
2024/02/23 09:28:02;;;;;;;21.10;15.80;;;;;;;12.44;56.34;101564.73;109598;1252;70285;-77
2024/02/23 09:30:30;;;;;;;25.80;15.40;;;;;;;12.42;57.32;101566.94;109560;1253;59827;-76
2024/02/23 09:32:58;;;;;;;19.20;15.30;;;;;;;12.69;57.81;101565.52;109647;1252;61017;-77
2024/02/23 09:35:26;;;;;;;19.70;15.00;;;;;;;13.10;57.56;101569.64;109628;1252;72379;-78
2024/02/23 09:37:54;;;;;;;18.40;13.90;;;;;;;13.57;56.45;101568.09;109659;1252;64362;-76
2024/02/23 09:40:22;;;;;;;21.10;15.10;;;;;;;14.00;52.19;101575.90;109603;1252;72134;-77
2024/02/23 09:42:55;;;;;;;20.90;14.70;;;;;;;14.07;51.43;101571.44;109572;1253;58753;-79
2024/02/23 09:45:24;;;;;;;23.40;17.20;;;;;;;14.22;51.91;101570.95;109515;1253;61084;-75
2024/02/23 09:47:53;;;;;;;21.20;16.00;;;;;;;14.45;50.77;101566.56;109641;1253;74935;-77
2024/02/23 09:50:24;;;;;;;20.50;15.30;;;;;;;14.42;50.00;101564.99;109570;1253;63697;-75
2024/02/23 09:52:52;;;;;;;22.30;16.00;;;;;;;14.13;50.51;101570.98;109626;1252;74268;-76
2024/02/23 09:55:21;;;;;;;29.50;22.80;;;;;;;13.72;51.34;101566.82;109537;1253;60339;-77
2024/02/23 09:57:51;;;;;;;30.60;22.60;;;;;;;13.22;53.32;101567.23;109551;1252;58694;-76
2024/02/23 10:00:19;;;;;;;23.20;16.70;;;;;;;12.94;55.65;101572.62;109549;1253;74932;-75
2024/02/23 10:02:48;;;;;;;23.90;15.60;;;;;;;12.85;56.50;101574.48;109493;1252;63344;-75
2024/02/23 10:05:17;;;;;;;25.30;17.10;;;;;;;12.68;56.88;101569.45;109448;1253;72629;-76
2024/02/23 10:07:45;;;;;;;26.20;19.20;;;;;;;12.54;57.83;101567.40;109440;1252;59921;-76
2024/02/23 10:10:13;;;;;;;27.50;18.60;;;;;;;12.50;58.86;101566.21;109470;1252;62780;-75
2024/02/23 10:12:41;;;;;;;22.30;15.90;;;;;;;12.63;59.71;101567.10;109572;1253;73645;-75
2024/02/23 10:15:09;;;;;;;21.20;15.60;;;;;;;12.87;59.25;101571.60;109627;1252;62458;-76
2024/02/23 10:17:36;;;;;;;18.70;13.60;;;;;;;13.13;57.71;101571.58;109613;1252;73164;-78
2024/02/23 10:20:04;;;;;;;23.10;16.30;;;;;;;13.33;56.28;101568.02;109607;1253;60580;-76
2024/02/23 10:22:32;;;;;;;23.10;18.60;;;;;;;13.43;55.42;101571.66;109641;1253;59766;-75
2024/02/23 10:24:59;;;;;;;23.90;18.10;;;;;;;13.34;55.24;101570.79;109620;1252;71948;-74
2024/02/23 10:27:27;;;;;;;23.30;15.60;;;;;;;13.20;56.13;101574.15;109613;1251;66046;-76
2024/02/23 10:29:55;;;;;;;20.50;15.50;;;;;;;13.06;56.22;101573.70;109652;1252;73739;-77
2024/02/23 10:32:23;;;;;;;17.20;13.50;;;;;;;12.85;57.29;101567.99;109604;1252;60920;-77
2024/02/23 10:34:51;;;;;;;19.90;13.80;;;;;;;12.63;57.98;101563.58;109618;1253;60549;-76
2024/02/23 10:37:19;;;;;;;21.80;14.20;;;;;;;12.41;59.11;101562.64;109452;1254;73210;-76
2024/02/23 10:39:46;;;;;;;20.90;14.70;;;;;;;12.24;60.21;101562.11;109519;1253;64879;-76
2024/02/23 10:42:16;;;;;;;20.10;13.90;;;;;;;12.15;60.98;101559.42;109476;1253;72733;-76
2024/02/23 10:44:44;;;;;;;27.30;16.30;;;;;;;12.05;62.13;101556.40;109473;1253;62130;-77
2024/02/23 10:47:11;;;;;;;17.90;13.90;;;;;;;12.02;62.92;101553.44;109482;1252;59142;-77
2024/02/23 10:49:40;;;;;;;20.50;14.70;;;;;;;12.05;63.24;101551.02;109476;1253;73658;-76
2024/02/23 10:52:11;;;;;;;18.40;13.70;;;;;;;12.11;63.26;101545.60;109493;1253;63465;-76
2024/02/23 10:54:40;;;;;;;18.20;13.60;;;;;;;12.36;63.05;101546.04;109449;1252;73017;-77
2024/02/23 10:57:08;;;;;;;18.90;14.20;;;;;;;12.56;60.55;101546.02;109462;1253;58245;-77
2024/02/23 10:59:35;;;;;;;22.30;14.70;;;;;;;12.46;61.30;101534.64;109511;1252;59216;-76
2024/02/23 11:02:04;;;;;;;18.60;13.00;;;;;;;12.42;62.23;101533.08;109516;1253;75059;-76
2024/02/23 11:04:31;;;;;;;20.50;14.20;;;;;;;12.34;61.38;101538.98;109345;1253;63920;-75
2024/02/23 11:07:03;;;;;;;19.50;12.30;;;;;;;12.12;62.88;101529.42;109473;1253;70854;-76